Tiempo atmosférico en la estación meteorológica de Guadalupe , Cáceres (640 m.)



Fecha
DESCASC
Temp. máxima en grados centígrados (hora)
DESCASC
Temp. mínima en grados centígrados (hora)
DESCASC
Temp. media en grados centígrados
DESCASC
Racha de viento máxima en m/sg (hora)
DESCASC
Velocidad máxima media en intervalos de 10 minutos(hora)
DESCASC
Precipitaciones diarias en mm
DESCASC
Precipitaciones de 00:00 a 06:00 en mm
DESCASC
Precipitaciones de 06:00 a 12:00 en mm
DESCASC
Precipitaciones de 12:00 a 18:00 en mm
DESCASC
Precipitaciones de 18:00 a 24:00 en mm
DESCASC
13-01-2021 11.4 (15:20) -1.4 (08:10) 5 2.78 (13:20) 1.39 (15:00) 0 0 0 0 0
12-01-2021 10.4 (15:40) -3.8 (08:40) 3.3 3.06 (13:40) 1.94 (17:00) 0 0 0 0 0
11-01-2021 8.5 (14:50) -1.7 (21:50) 3.4 7.5 (08:50) 4.44 (08:30) 0 0 0 0 0
10-01-2021 7.1 (13:10) -1 (07:40) 3 8.33 (23:30) 5 (23:20) 0 0 0 0 0
09-01-2021 1.8 (12:10) -0.2 (00:00) 0.8 8.89 (01:30) 4.44 (01:50) 4 0.6 1.2 1.8 0.4
08-01-2021 2.8 (09:10) -0.9 (-00:0) 0.9 9.44 (20:50) 5.83 (21:50) 16.6 0 0.8 8.4 7.4
07-01-2021 4 (01:00) -0.8 (-00:0) 1.6 6.67 (16:30) 4.17 (16:10) 0 0 0 0 0
06-01-2021 7.6 (14:10) -3.5 (-00:0) 2 5.28 (14:30) 3.06 (14:30) 0 0 0 0 0
05-01-2021 6.8 (15:40) -4.6 (-00:0) 1.1 3.06 (14:30) 1.39 (14:30) 0 0 0 0 0
04-01-2021 5.3 (15:30) -1.8 (-00:0) 1.8 5 (00:30) 1.94 (13:50) 0 0 0 0 0
03-01-2021 8.8 (15:20) -3.7 (-00:0) 2.6 6.39 (15:20) 2.22 (22:20) 0 0 0 0 0
02-01-2021 7.7 (14:20) -1.4 (-00:0) 3.1 7.5 (00:30) 3.61 (04:50) 0 0 0 0 0
01-01-2021 8 (13:00) 1.2 (00:00) 4.6 10.56 (06:50) 5.56 (06:20) 0.2 0.2 0 0 0
31-12-2020 6.6 (20:10) -1.9 (-00:0) 2.3 -- (--) -- (--) -- 0 -- 1.6 5.4
30-12-2020 8.6 (15:00) -0.8 (-00:0) 3.9 8.89 (05:20) 3.61 (04:30) 0 0 0 0 0
29-12-2020 9.5 (15:00) 2.9 (00:00) 6.2 7.5 (21:00) 2.22 (15:30) 0.4 0 0.4 0 0
28-12-2020 -- (--) -- (--) -- -- (--) -- (--) -- 0.8 1.4 -- 0
27-12-2020 10.2 (14:10) -1.9 (-00:0) 4.1 9.72 (22:30) 2.78 (22:40) 0 0 0 0 0
26-12-2020 10.8 (14:50) -1.3 (-00:0) 4.8 6.11 (09:30) 2.78 (08:20) 0 0 0 0 0
25-12-2020 11 (14:00) 3.4 (00:00) 7.2 7.78 (15:00) 3.89 (07:30) 0 0 0 0 0
24-12-2020 12.9 (15:50) 6.9 (00:00) 9.9 5.83 (18:40) 3.06 (18:40) 0.6 0.4 0.2 0 0
23-12-2020 9.1 (16:30) 5.7 (00:00) 7.4 1.94 (21:10) 1.39 (21:10) 0.2 0 0.2 0 0
22-12-2020 15.9 (15:00) 6 (00:00) 10.9 3.06 (14:20) 1.67 (15:20) 0.2 0.2 0 0 0
21-12-2020 9.9 (16:30) 3.3 (00:00) 6.6 2.22 (10:40) 1.39 (19:00) 0 0 0 0 0
20-12-2020 13.2 (14:10) 4.6 (00:00) 8.9 4.72 (15:10) 2.5 (15:10) 0.2 0 0.2 0 0
19-12-2020 8.6 (15:40) 7.3 (00:00) 8 3.33 (11:30) 1.67 (08:00) 20 0 4.2 13.4 2.4
18-12-2020 11.7 (11:40) 3 (00:00) 7.3 3.06 (13:50) 1.39 (13:50) 0.2 0.2 0 0 0
17-12-2020 15.8 (14:40) 6.3 (00:00) 11.1 5.56 (05:30) 3.33 (05:30) 0.4 0.4 0 0 0

Gráficas

Temp. máximas Temp. mínimas Temp. medias Precipitaciones Rachas de viento máximas Velocidades máximas media en intervalos de 10 minutos

Datos horarios

Fecha y hora oficial Temperatura (ºC) Velocidad del viento (km/h) Dirección del viento Racha (km/h) Dirección de racha Precipitación (mm) Presión (hPa) Tendencia (hPa) Humedad (%)
2021-01-15 23:00:00 2.7 0 Calma 3 Noroeste 0 -- -- 84
2021-01-15 22:00:00 2.7 0 Calma 2 Nordeste 0 -- -- 86
2021-01-15 21:00:00 3 0 Calma 3 Norte 0 -- -- 88
2021-01-15 20:00:00 3.3 0 Calma 4 Norte 0 -- -- 86
2021-01-15 19:00:00 4.5 0 Calma 5 Noroeste 0 -- -- 83
2021-01-15 18:00:00 6.8 0 Calma 6 Este 0 -- -- 74
2021-01-15 17:00:00 9.7 5 Este 12 Este 0 -- -- 59
2021-01-15 16:00:00 11.8 7 Este 14 Sudeste 0 -- -- 54
2021-01-15 15:00:00 12.5 7 Este 13 Este 0 -- -- 50
2021-01-15 14:00:00 12.1 5 Este 10 Sudeste 0 -- -- 51
2021-01-15 13:00:00 10.9 5 Sudeste 10 Sudeste 0 -- -- 51
2021-01-15 12:00:00 9.4 3 Este 7 Sudeste 0 -- -- 52
2021-01-15 11:00:00 9.2 4 Sudeste 7 Sudeste 0 -- -- 59
2021-01-15 10:00:00 6.9 0 Calma 3 Sur 0 -- -- 63
2021-01-15 09:00:00 2.4 0 Calma 3 Norte 0 -- -- 77
2021-01-15 08:00:00 2.1 0 Calma 2 Noroeste 0 -- -- 72
2021-01-15 07:00:00 1.8 0 Calma 3 Noroeste 0 -- -- 73
2021-01-15 06:00:00 1.6 0 Calma 4 Noroeste 0 -- -- 72
2021-01-15 05:00:00 1.8 2 Norte 4 Norte 0 -- -- 71
2021-01-15 04:00:00 1.2 0 Calma 8 Noroeste 0 -- -- 74
2021-01-15 03:00:00 0.6 3 Noroeste 8 Oeste 0 -- -- 76
2021-01-15 02:00:00 1.1 2 Norte 4 Norte 0 -- -- 78
2021-01-15 01:00:00 1.4 0 Calma 7 Noroeste 0 -- -- 93
2021-01-15 00:00:00 1.5 3 Noroeste 6 Noroeste 0 -- -- 94
2021-01-14 23:00:00 1.5 0 Calma 3 Noroeste 0 -- -- 93
2021-01-14 22:00:00 1.7 0 Calma 3 Noroeste 0 -- -- 93
2021-01-14 21:00:00 2.2 0 Calma 3 Noroeste 0 -- -- 93
2021-01-14 20:00:00 2.7 0 Calma 3 Norte 0 -- -- 91
2021-01-14 19:00:00 3.8 0 Calma 4 Norte 0 -- -- 87
2021-01-14 18:00:00 6.7 0 Calma 6 Sur 0 -- -- 77
2021-01-14 17:00:00 9.1 2 Sudeste 9 Sudeste 0 -- -- 67
2021-01-14 16:00:00 11.4 6 Sudeste 10 Sudeste 0 -- -- 58
2021-01-14 15:00:00 11.7 5 Sudeste 10 Este 0 -- -- 57
2021-01-14 14:00:00 10.8 4 Sudeste 9 Sudeste 0 -- -- 59
2021-01-14 13:00:00 10 4 Sudeste 9 Sudeste 0 -- -- 57
2021-01-14 12:00:00 8.5 4 Sudeste 8 Sudeste 0 -- -- 61
2021-01-14 11:00:00 6.2 2 Sudeste 4 Este 0 -- -- 61
2021-01-14 10:00:00 4.5 0 Calma 0 Calma 0 -- -- 62
2021-01-14 09:00:00 -0.5 0 Calma 2 Norte 0 -- -- 86
2021-01-14 08:00:00 -1.1 0 Calma 3 Norte 0 -- -- 88
2021-01-14 07:00:00 -0.8 0 Calma 2 Noroeste 0 -- -- 88
2021-01-14 06:00:00 -1 0 Calma 2 Norte 0 -- -- 88
2021-01-14 05:00:00 -0.8 0 Calma 2 Norte 0 -- -- 89
2021-01-14 04:00:00 -0.5 0 Calma 2 Norte 0 -- -- 90
2021-01-14 03:00:00 -0.1 0 Calma 2 Norte 0 -- -- 91
2021-01-14 02:00:00 0.2 0 Calma 4 Norte 0 -- -- 90
2021-01-14 01:00:00 0.3 0 Calma 3 Norte 0 -- -- 90
2021-01-14 00:00:00 0.9 0 Calma 3 Noroeste 0 -- -- 87
2021-01-13 23:00:00 0.9 0 Calma 4 Noroeste 0 -- -- 87
2021-01-13 22:00:00 0.9 0 Calma 3 Norte 0 -- -- 88
2021-01-13 21:00:00 1.3 0 Calma 2 Noroeste 0 -- -- 87
2021-01-13 20:00:00 1.9 0 Calma 4 Norte 0 -- -- 85
2021-01-13 19:00:00 2.9 0 Calma 4 Norte 0 -- -- 81
2021-01-13 18:00:00 5.4 0 Calma 6 Sudeste 0 -- -- 72
2021-01-13 17:00:00 8.8 5 Sudeste 8 Este 0 -- -- 57
2021-01-13 16:00:00 10.9 5 Sudeste 10 Este 0 -- -- 49
2021-01-13 15:00:00 11.2 5 Sudeste 9 Sur 0 -- -- 48
2021-01-13 14:00:00 10.2 4 Este 10 Sudeste 0 -- -- 50
2021-01-13 13:00:00 9.5 4 Este 8 Sudeste 0 -- -- 45
2021-01-13 12:00:00 7.6 4 Sudeste 6 Sudeste 0 -- -- 48
2021-01-13 11:00:00 5.6 2 Sudeste 4 Sudeste 0 -- -- 52
2021-01-13 10:00:00 3.7 0 Calma 2 Sudeste 0 -- -- 57
2021-01-13 09:00:00 -0.8 0 Calma 3 Noroeste 0 -- -- 76
2021-01-13 08:00:00 -1.2 0 Calma 3 Noroeste 0 -- -- 73
2021-01-13 07:00:00 -0.5 0 Calma 4 Noroeste 0 -- -- 69
2021-01-13 06:00:00 -0.5 0 Calma 4 Oeste 0 -- -- 72
2021-01-13 05:00:00 -0.6 0 Calma 2 Noroeste 0 -- -- 75
2021-01-13 04:00:00 -0.5 0 Calma 2 Noroeste 0 -- -- 75
2021-01-13 03:00:00 -0.5 0 Calma 3 Noroeste 0 -- -- 75
2021-01-13 02:00:00 -0.2 0 Calma 3 Noroeste 0 -- -- 75
2021-01-13 01:00:00 0.3 0 Calma 4 Norte 0 -- -- 73
2021-01-13 00:00:00 0.1 0 Calma 4 Nordeste 0 -- -- 76
2021-01-12 23:00:00 0.1 0 Calma 3 Noroeste 0 -- -- 77
2021-01-12 22:00:00 0.4 0 Calma 2 Norte 0 -- -- 75
2021-01-12 21:00:00 0.3 2 Noroeste 4 Noroeste 0 -- -- 76
2021-01-12 20:00:00 0.9 0 Calma 6 Noroeste 0 -- -- 75
2021-01-12 19:00:00 2 0 Calma 6 Norte 0 -- -- 69
2021-01-12 18:00:00 4.5 0 Calma 10 Este 0 -- -- 59
2021-01-12 17:00:00 7.6 7 Este 10 Este 0 -- -- 44
2021-01-12 16:00:00 10.3 5 Sur 10 Sudeste 0 -- -- 36
2021-01-12 15:00:00 9.9 4 Sudeste 9 Este 0 -- -- 41
2021-01-12 14:00:00 9.3 4 Sudeste 11 Sudeste 0 -- -- 44
2021-01-12 13:00:00 7.8 4 Sudeste 8 Sudeste 0 -- -- 44
2021-01-12 12:00:00 6 4 Sudeste 9 Sudeste 0 -- -- 47
2021-01-12 11:00:00 4.5 3 Sudeste 6 Sudeste 0 -- -- 52
2021-01-12 10:00:00 2.2 0 Calma 2 Este 0 -- -- 55
2021-01-12 09:00:00 -2.8 0 Calma 3 Noroeste 0 -- -- 78
2021-01-12 08:00:00 -3.5 0 Calma 2 Noroeste 0 -- -- 76
2021-01-12 07:00:00 -3.4 0 Calma 3 Nordeste 0 -- -- 76
2021-01-12 06:00:00 -3.3 0 Calma 2 Noroeste 0 -- -- 77
2021-01-12 05:00:00 -3.1 0 Calma 2 Noroeste 0 -- -- 75
2021-01-12 04:00:00 -2.8 0 Calma 3 Noroeste 0 -- -- 72
2021-01-12 03:00:00 -2.8 0 Calma 3 Norte 0 -- -- 72
2021-01-12 02:00:00 -2.6 0 Calma 5 Norte 0 -- -- 73
2021-01-12 01:00:00 -2.1 2 Norte 9 Oeste 0 -- -- 71
2021-01-12 00:00:00 -1.6 0 Calma 8 Noroeste 0 -- -- 69
2021-01-11 23:00:00 -0.3 0 Calma 10 Noroeste 0 -- -- 62
2021-01-11 22:00:00 -1.6 0 Calma 4 Norte 0 -- -- 62
2021-01-11 21:00:00 -1.2 2 Norte 4 Nordeste 0 -- -- 60
2021-01-11 20:00:00 -0.8 0 Calma 7 Noroeste 0 -- -- 55
2021-01-11 19:00:00 0.9 4 Oeste 9 Norte 0 -- -- 53
2021-01-11 18:00:00 4.2 5 Nordeste 17 Nordeste 0 -- -- 36
2021-01-11 17:00:00 5.7 6 Este 21 Este 0 -- -- 30
2021-01-11 16:00:00 7.5 10 Este 24 Este 0 -- -- 27
2021-01-11 15:00:00 8.2 12 Este 26 Nordeste 0 -- -- 26
2021-01-11 14:00:00 8.4 13 Nordeste 26 Este 0 -- -- 28
2021-01-11 13:00:00 7.8 9 Este 26 Este 0 -- -- 31
2021-01-11 12:00:00 7.3 9 Este 21 Norte 0 -- -- 36
2021-01-11 11:00:00 5.4 8 Noroeste 26 Noroeste 0 -- -- 42
2021-01-11 10:00:00 4.7 11 Norte 24 Norte 0 -- -- 43
2021-01-11 09:00:00 2.8 8 Nordeste 27 Nordeste 0 -- -- 48
2021-01-11 08:00:00 1.3 11 Noroeste 22 Noroeste 0 -- -- 61
2021-01-11 07:00:00 0.9 3 Norte 22 Noroeste 0 -- -- 74
2021-01-11 06:00:00 1.2 10 Noroeste 20 Norte 0 -- -- 73
2021-01-11 05:00:00 -0.4 0 Calma 5 Norte 0 -- -- 85
2021-01-11 04:00:00 0.5 2 Noroeste 5 Norte 0 -- -- 83
2021-01-11 03:00:00 1 2 Norte 6 Oeste 0 -- -- 80
2021-01-11 02:00:00 2.6 0 Calma 14 Nordeste 0 -- -- 70
2021-01-11 01:00:00 1.5 3 Oeste 12 Norte 0 -- -- 75
2021-01-11 00:00:00 1.7 7 Norte 30 Noroeste 0 -- -- 73
2021-01-10 23:00:00 1.6 12 Noroeste 24 Noroeste 0 -- -- 70
2021-01-10 22:00:00 1.8 8 Norte 20 Noroeste 0 -- -- 69
2021-01-10 21:00:00 2.1 8 Norte 21 Noroeste 0 -- -- 67
2021-01-10 20:00:00 1 0 Calma 22 Noroeste 0 -- -- 75
2021-01-10 19:00:00 1.6 11 Norte 21 Noroeste 0 -- -- 72
2021-01-10 18:00:00 2.7 6 Norte 18 Norte 0 -- -- 69
2021-01-10 17:00:00 3.9 8 Norte 16 Nordeste 0 -- -- 65
2021-01-10 16:00:00 5.8 5 Nordeste 23 Norte 0 -- -- 61
2021-01-10 15:00:00 7.1 8 Nordeste 18 Norte 0 -- -- 58
2021-01-10 14:00:00 6.2 11 Norte 20 Noroeste 0 -- -- 63
2021-01-10 13:00:00 7 6 Nordeste 20 Este 0 -- -- 61
2021-01-10 12:00:00 5.8 6 Norte 21 Noroeste 0 -- -- 66
2021-01-10 11:00:00 1.9 0 Calma 17 Norte 0 -- -- 82
2021-01-10 10:00:00 1 2 Noroeste 25 Norte 0 -- -- 83
2021-01-10 09:00:00 0.4 12 Noroeste 29 Norte 0 -- -- 84
2021-01-10 08:00:00 -0.9 0 Calma 4 Sudoeste 0 -- -- 94
2021-01-10 07:00:00 -0.7 0 Calma 3 Norte 0 -- -- 92
2021-01-10 06:00:00 0.2 0 Calma 10 Norte 0 -- -- 92
2021-01-10 05:00:00 0.5 0 Calma 16 Nordeste 0 -- -- 90
2021-01-10 04:00:00 1.1 6 Norte 23 Norte 0 -- -- 86
2021-01-10 03:00:00 0.6 14 Noroeste 20 Noroeste 0 -- -- 92
2021-01-10 02:00:00 0.3 2 Norte 5 Nordeste 0 -- -- 97
2021-01-10 01:00:00 0.7 0 Calma 6 Oeste 0 -- -- 98
2021-01-10 00:00:00 0.4 0 Calma 5 Oeste 0 -- -- 99
2021-01-09 23:00:00 0.4 0 Calma 6 Sudeste 0 -- -- 99
2021-01-09 22:00:00 0.3 3 Este 12 Este 0 -- -- 99
2021-01-09 21:00:00 0.3 4 Este 7 Sudeste 0.2 -- -- 99
2021-01-09 20:00:00 0.1 3 Este 6 Sudeste 0 -- -- 99
2021-01-09 19:00:00 0 3 Este 10 Sudeste 0.2 -- -- 98
2021-01-09 18:00:00 0.4 4 Sudeste 12 Este 0.2 -- -- 98
2021-01-09 17:00:00 0.7 4 Este 8 Este 0.4 -- -- 97
2021-01-09 16:00:00 0.8 4 Este 9 Este 0.2 -- -- 96
2021-01-09 15:00:00 0.7 4 Este 9 Este 0.4 -- -- 95
2021-01-09 14:00:00 1.6 0 Calma 4 Norte 0.2 -- -- 90
2021-01-09 13:00:00 1.7 2 Este 14 Norte 0.4 -- -- 88
2021-01-09 12:00:00 1.3 4 Nordeste 13 Norte 0.8 -- -- 83
2021-01-09 11:00:00 0.7 5 Norte 13 Norte 0.4 -- -- 86
2021-01-09 10:00:00 0.3 5 Norte 13 Norte 0 -- -- 88
2021-01-09 09:00:00 -0.1 4 Norte 16 Noroeste 0 -- -- 90
2021-01-09 08:00:00 -0.2 8 Noroeste 21 Norte 0 -- -- 90
2021-01-09 07:00:00 -0.1 6 Noroeste 20 Norte 0 -- -- 91
2021-01-09 06:00:00 0.1 10 Noroeste 26 Noroeste 0 -- -- 88
2021-01-09 05:00:00 0.3 13 Noroeste 27 Noroeste 0.2 -- -- 88
2021-01-09 04:00:00 0.3 14 Noroeste 30 Noroeste 0 -- -- 90
2021-01-09 03:00:00 0.5 15 Noroeste 30 Noroeste 0.2 -- -- 90
2021-01-09 02:00:00 0.6 12 Noroeste 32 Norte 0.2 -- -- 89
2021-01-09 01:00:00 0.6 4 Norte 28 Oeste 0 -- -- 91
2021-01-09 00:00:00 0.7 12 Noroeste 31 Noroeste 0.4 -- -- 90
2021-01-08 23:00:00 0.8 18 Noroeste 34 Noroeste 1 -- -- 90
2021-01-08 22:00:00 0.8 18 Noroeste 32 Norte 1 -- -- 91
2021-01-08 21:00:00 1.2 13 Norte 34 Norte 1.4 -- -- 90
2021-01-08 20:00:00 1.3 9 Norte 19 Nordeste 1.2 -- -- 91
2021-01-08 19:00:00 1.3 5 Norte 29 Noroeste 2.4 -- -- 91
2021-01-08 18:00:00 1.7 8 Norte 24 Noroeste 2.4 -- -- 89
2021-01-08 17:00:00 1.8 9 Norte 22 Nordeste 2.6 -- -- 89
2021-01-08 16:00:00 2.5 4 Este 20 Nordeste 0.8 -- -- 88
2021-01-08 15:00:00 2.7 5 Nordeste 22 Norte 0.4 -- -- 86
2021-01-08 14:00:00 2.6 8 Norte 20 Este 0.8 -- -- 88
2021-01-08 13:00:00 2 0 Calma 6 Norte 1.4 -- -- 94
2021-01-08 12:00:00 1.4 3 Oeste 10 Nordeste 0.8 -- -- 90
2021-01-08 11:00:00 2.6 4 Este 25 Norte 0 -- -- 79
2021-01-08 10:00:00 2.6 8 Nordeste 17 Nordeste 0 -- -- 77
2021-01-08 09:00:00 2.7 6 Nordeste 18 Norte 0 -- -- 75
2021-01-08 08:00:00 1.9 4 Nordeste 12 Nordeste 0 -- -- 78
2021-01-08 07:00:00 0.5 0 Calma 5 Norte 0 -- -- 87
2021-01-08 06:00:00 1.9 2 Nordeste 11 Este 0 -- -- 77
2021-01-08 05:00:00 2.5 4 Nordeste 17 Nordeste 0 -- -- 74
2021-01-08 04:00:00 2.2 8 Nordeste 21 Este 0 -- -- 75
2021-01-08 03:00:00 1.7 4 Nordeste 20 Nordeste 0 -- -- 77
2021-01-08 02:00:00 -0.9 0 Calma 5 Sudoeste 0 -- -- 90
2021-01-08 01:00:00 -0.5 0 Calma 6 Sudoeste 0 -- -- 86
2021-01-08 00:00:00 0.2 2 Sur 12 Oeste 0 -- -- 83
2021-01-07 23:00:00 -0.5 0 Calma 5 Sudoeste 0 -- -- 87
2021-01-07 22:00:00 -0.3 0 Calma 4 Sudoeste 0 -- -- 86
2021-01-07 21:00:00 0.2 0 Calma 5 Norte 0 -- -- 85
2021-01-07 20:00:00 1.1 0 Calma 14 Este 0 -- -- 79
2021-01-07 19:00:00 2.4 8 Norte 23 Norte 0 -- -- 73
2021-01-07 18:00:00 2.6 4 Norte 17 Nordeste 0 -- -- 77
2021-01-07 17:00:00 2.9 7 Norte 24 Norte 0 -- -- 76
2021-01-07 16:00:00 2.8 14 Noroeste 23 Noroeste 0 -- -- 77
2021-01-07 15:00:00 3.9 5 Norte 14 Nordeste 0 -- -- 75
2021-01-07 14:00:00 3.7 5 Este 11 Nordeste 0 -- -- 74
2021-01-07 13:00:00 3.4 5 Nordeste 15 Nordeste 0 -- -- 76
2021-01-07 12:00:00 3.1 5 Nordeste 13 Este 0 -- -- 78
2021-01-07 11:00:00 2.4 2 Nordeste 8 Noroeste 0 -- -- 83
2021-01-07 10:00:00 2 5 Norte 14 Noroeste 0 -- -- 81
2021-01-07 09:00:00 1.9 0 Calma 12 Noroeste 0 -- -- 77
2021-01-07 08:00:00 1.9 0 Calma 9 Norte 0 -- -- 75
2021-01-07 07:00:00 2 0 Calma 5 Sudoeste 0 -- -- 70
2021-01-07 06:00:00 2.8 0 Calma 23 Norte 0 -- -- 65
2021-01-07 05:00:00 3.4 11 Noroeste 20 Norte 0 -- -- 56
2021-01-07 04:00:00 3.3 2 Norte 14 Noroeste 0 -- -- 57
2021-01-07 03:00:00 1.7 3 Norte 10 Nordeste 0 -- -- 62
2021-01-07 02:00:00 2.2 2 Norte 11 Este 0 -- -- 64
2021-01-07 01:00:00 4 6 Nordeste 16 Norte 0 -- -- 54
2021-01-07 00:00:00 3.3 0 Calma 13 Norte 0 -- -- 57
2021-01-06 23:00:00 4.1 4 Nordeste 19 Nordeste 0 -- -- 48
2021-01-06 22:00:00 4 6 Nordeste 16 Nordeste 0 -- -- 47
2021-01-06 21:00:00 4 6 Nordeste 17 Nordeste 0 -- -- 49
2021-01-06 20:00:00 4.2 8 Nordeste 17 Nordeste 0 -- -- 52
2021-01-06 19:00:00 4.2 5 Nordeste 12 Nordeste 0 -- -- 53
2021-01-06 18:00:00 4.4 0 Calma 8 Este 0 -- -- 55
2021-01-06 17:00:00 5.3 4 Sudeste 14 Sur 0 -- -- 51
2021-01-06 16:00:00 6.1 5 Sudeste 18 Sudeste 0 -- -- 44
2021-01-06 15:00:00 7.5 9 Sudeste 19 Este 0 -- -- 39
2021-01-06 14:00:00 7.2 8 Sudeste 17 Sudeste 0 -- -- 41
2021-01-06 13:00:00 6.7 6 Sudeste 13 Sur 0 -- -- 45
2021-01-06 12:00:00 5.6 2 Sudeste 5 Sur 0 -- -- 42
2021-01-06 11:00:00 5.6 4 Sudeste 6 Sudeste 0 -- -- 52
2021-01-06 10:00:00 1.9 0 Calma 3 Oeste 0 -- -- 60
2021-01-06 09:00:00 -2.8 0 Calma 5 Oeste 0 -- -- 76
2021-01-06 08:00:00 -3.3 0 Calma 3 Norte 0 -- -- 77
2021-01-06 07:00:00 -3.3 0 Calma 3 Norte 0 -- -- 79
2021-01-06 06:00:00 -3.1 0 Calma 2 Noroeste 0 -- -- 81
2021-01-06 05:00:00 -2.4 0 Calma 3 Noroeste 0 -- -- 83
2021-01-06 04:00:00 -2.7 2 Noroeste 4 Noroeste 0 -- -- 87
2021-01-06 03:00:00 -2.2 2 Noroeste 5 Noroeste 0 -- -- 87
2021-01-06 02:00:00 -2.2 0 Calma 4 Noroeste 0 -- -- 89
2021-01-06 01:00:00 -1.9 0 Calma 4 Norte 0 -- -- 88
2021-01-06 00:00:00 -1.4 0 Calma 3 Noroeste 0 -- -- 86
2021-01-05 23:00:00 -1.8 0 Calma 2 Noroeste 0 -- -- 88
2021-01-05 22:00:00 -1.3 0 Calma 2 Noroeste 0 -- -- 87
2021-01-05 21:00:00 -0.9 0 Calma 3 Nordeste 0 -- -- 85
2021-01-05 20:00:00 -0.8 0 Calma 3 Norte 0 -- -- 86
2021-01-05 19:00:00 0.1 0 Calma 3 Noroeste 0 -- -- 83
2021-01-05 18:00:00 2 0 Calma 10 Sudeste 0 -- -- 75
2021-01-05 17:00:00 4.3 3 Sudeste 10 Sur 0 -- -- 63
2021-01-05 16:00:00 6.5 4 Sudeste 10 Sur 0 -- -- 61
2021-01-05 15:00:00 6.2 4 Sudeste 11 Este 0 -- -- 61
2021-01-05 14:00:00 4.4 3 Sudeste 8 Sudeste 0 -- -- 75
2021-01-05 13:00:00 0.8 2 Este 6 Sudeste 0 -- -- 95
2021-01-05 12:00:00 -0.5 0 Calma 5 Sudeste 0 -- -- 93
2021-01-05 11:00:00 0.2 3 Sudeste 5 Sudeste 0 -- -- 86
2021-01-05 10:00:00 -0.8 0 Calma 3 Sur 0 -- -- 88
2021-01-05 09:00:00 -3.8 0 Calma 2 Noroeste 0 -- -- 98
2021-01-05 08:00:00 -4.3 0 Calma 5 Noroeste 0 -- -- 96
2021-01-05 07:00:00 -3.8 3 Noroeste 6 Sur 0 -- -- 97
2021-01-05 06:00:00 -3.4 2 Oeste 5 Norte 0 -- -- 95
2021-01-05 05:00:00 -3.8 0 Calma 2 Noroeste 0 -- -- 96
2021-01-05 04:00:00 -3.5 0 Calma 5 Oeste 0 -- -- 94
2021-01-05 03:00:00 -3.1 2 Noroeste 3 Noroeste 0 -- -- 94
2021-01-05 02:00:00 -2 0 Calma 4 Sudeste 0 -- -- 91
2021-01-05 01:00:00 -1.8 0 Calma 3 Sur 0 -- -- 90
2021-01-05 00:00:00 -1.8 0 Calma 4 Oeste 0 -- -- 90
2021-01-04 23:00:00 -1.1 2 Oeste 6 Noroeste 0 -- -- 88
2021-01-04 22:00:00 -1.2 2 Norte 5 Noroeste 0 -- -- 88
2021-01-04 21:00:00 -0.8 0 Calma 6 Sur 0 -- -- 87
2021-01-04 20:00:00 -0.3 0 Calma 7 Noroeste 0 -- -- 86
2021-01-04 19:00:00 0.9 4 Noroeste 10 Oeste 0 -- -- 79
2021-01-04 18:00:00 2.2 0 Calma 6 Sudeste 0 -- -- 83
2021-01-04 17:00:00 4.5 4 Sur 9 Sudoeste 0 -- -- 70
2021-01-04 16:00:00 5.2 3 Sur 13 Oeste 0 -- -- 63
2021-01-04 15:00:00 4.6 4 Sur 11 Sudoeste 0 -- -- 71
2021-01-04 14:00:00 3 5 Este 11 Este 0 -- -- 88
2021-01-04 13:00:00 2.5 0 Calma 6 Este 0 -- -- 90
2021-01-04 12:00:00 1.6 0 Calma 9 Este 0 -- -- 91
2021-01-04 11:00:00 2.2 2 Sur 6 Sudeste 0 -- -- 87
2021-01-04 10:00:00 1.6 0 Calma 3 Sudeste 0 -- -- 90
2021-01-04 09:00:00 -0.5 0 Calma 4 Sur 0 -- -- 94
2021-01-04 08:00:00 0.6 0 Calma 9 Nordeste 0 -- -- 89
2021-01-04 07:00:00 0.9 0 Calma 6 Nordeste 0 -- -- 86
2021-01-04 06:00:00 0.2 3 Oeste 8 Oeste 0 -- -- 89
2021-01-04 05:00:00 0.9 2 Oeste 11 Nordeste 0 -- -- 81
2021-01-04 04:00:00 1.3 4 Norte 14 Norte 0 -- -- 78
2021-01-04 03:00:00 0 2 Sudoeste 7 Oeste 0 -- -- 85
2021-01-04 02:00:00 0 4 Norte 6 Norte 0 -- -- 88
2021-01-04 01:00:00 0.4 0 Calma 18 Norte 0 -- -- 84
2021-01-04 00:00:00 0 0 Calma 5 Norte 0 -- -- 88
2021-01-03 23:00:00 1 2 Noroeste 14 Sudeste 0 -- -- 81
2021-01-03 22:00:00 3.1 4 Norte 16 Noroeste 0 -- -- 71
2021-01-03 21:00:00 2.5 3 Noroeste 8 Noroeste 0 -- -- 73
2021-01-03 20:00:00 1.7 3 Noroeste 10 Noroeste 0 -- -- 80
2021-01-03 19:00:00 1.4 0 Calma 7 Sur 0 -- -- 80
2021-01-03 18:00:00 3.8 3 Oeste 14 Sur 0 -- -- 67
2021-01-03 17:00:00 5.7 6 Sur 19 Sur 0 -- -- 59
2021-01-03 16:00:00 8.2 6 Sur 23 Sudoeste 0 -- -- 48
2021-01-03 15:00:00 8.1 7 Este 14 Sudeste 0 -- -- 56
2021-01-03 14:00:00 7.5 5 Sudeste 9 Sudeste 0 -- -- 57
2021-01-03 13:00:00 5.9 3 Este 13 Sur 0 -- -- 57
2021-01-03 12:00:00 4.4 3 Sudeste 10 Sudeste 0 -- -- 60
2021-01-03 11:00:00 2.9 2 Sudeste 5 Sudeste 0 -- -- 62
2021-01-03 10:00:00 1.1 0 Calma 2 Este 0 -- -- 66
2021-01-03 09:00:00 -3.2 0 Calma 2 Noroeste 0 -- -- 87
2021-01-03 08:00:00 -3.5 0 Calma 5 Oeste 0 -- -- 85
2021-01-03 07:00:00 -2.9 0 Calma 4 Nordeste 0 -- -- 81
2021-01-03 06:00:00 -2.7 0 Calma 6 Noroeste 0 -- -- 80
2021-01-03 05:00:00 -2 2 Norte 5 Oeste 0 -- -- 75
2021-01-03 04:00:00 -1.7 4 Noroeste 6 Noroeste 0 -- -- 74
2021-01-03 03:00:00 -0.1 3 Oeste 10 Norte 0 -- -- 67
2021-01-03 02:00:00 1.1 6 Norte 11 Noroeste 0 -- -- 60
2021-01-03 01:00:00 -0.1 5 Noroeste 9 Noroeste 0 -- -- 63
2021-01-03 00:00:00 -0.6 4 Noroeste 11 Noroeste 0 -- -- 66
2021-01-02 23:00:00 -1.4 2 Noroeste 12 Noroeste 0 -- -- 74
2021-01-02 22:00:00 1 2 Norte 15 Noroeste 0 -- -- 61
2021-01-02 21:00:00 1.3 8 Norte 13 Norte 0 -- -- 60
2021-01-02 20:00:00 1.8 7 Noroeste 15 Noroeste 0 -- -- 54
2021-01-02 19:00:00 2 6 Norte 14 Noroeste 0 -- -- 61
2021-01-02 18:00:00 4.1 7 Noroeste 18 Noroeste 0 -- -- 50
2021-01-02 17:00:00 5.1 6 Norte 26 Norte 0 -- -- 45
2021-01-02 16:00:00 6.5 10 Noroeste 25 Noroeste 0 -- -- 44
2021-01-02 15:00:00 6.2 3 Nordeste 24 Noroeste 0 -- -- 48
2021-01-02 14:00:00 7.2 10 Nordeste 25 Norte 0 -- -- 40